createdAt,value
2019-03-24T00:03:47.265Z,98373.67
2019-03-24T00:08:49.055Z,98366.16
2019-03-24T00:13:50.608Z,98362.41
2019-03-24T00:18:52.703Z,98366.38
2019-03-24T00:23:54.809Z,98365.55
2019-03-24T00:28:56.660Z,98355.75
2019-03-24T00:34:00.123Z,98367.23
2019-03-24T00:39:04.742Z,98368.70
2019-03-24T00:44:06.732Z,98362.78
2019-03-24T00:49:08.389Z,98360.97
2019-03-24T00:54:09.945Z,98369.31
2019-03-24T00:59:11.489Z,98367.49
2019-03-24T01:04:13.145Z,98369.66
2019-03-24T01:09:15.314Z,98364.22
2019-03-24T01:14:17.138Z,98364.59
2019-03-24T01:19:18.973Z,98373.99
2019-03-24T01:24:20.568Z,98375.69
2019-03-24T01:29:22.162Z,98381.91
2019-03-24T01:34:23.916Z,98382.52
2019-03-24T01:39:25.474Z,98383.44
2019-03-24T01:44:27.028Z,98387.41
2019-03-24T01:49:28.689Z,98394.75
2019-03-24T01:54:30.350Z,98392.20
2019-03-24T01:59:32.146Z,98408.58
2019-03-24T02:04:33.704Z,98406.22
2019-03-24T02:09:35.761Z,98413.05
2019-03-24T02:14:37.345Z,98411.78
2019-03-24T02:19:38.977Z,98412.71
2019-03-24T02:24:40.573Z,98434.55
2019-03-24T02:29:42.146Z,98441.41
2019-03-24T02:34:43.708Z,98448.97
2019-03-24T02:39:45.342Z,98448.82
2019-03-24T02:44:46.921Z,98452.42
2019-03-24T02:49:48.483Z,98453.26
2019-03-24T02:54:50.096Z,98463.41
2019-03-24T02:59:51.640Z,98463.98
2019-03-24T03:04:53.232Z,98470.47
2019-03-24T03:09:54.838Z,98472.59
2019-03-24T03:14:56.430Z,98472.06
2019-03-24T03:19:58.065Z,98477.93
2019-03-24T03:24:59.641Z,98480.73
2019-03-24T03:30:01.317Z,98488.04
2019-03-24T03:35:06.201Z,98493.45
2019-03-24T03:40:09.189Z,98494.89
2019-03-24T03:45:11.675Z,98489.49
2019-03-24T03:50:13.418Z,98499.66
2019-03-24T03:55:14.973Z,98497.58
2019-03-24T04:00:22.271Z,98498.02
2019-03-24T04:05:23.844Z,98502.77
2019-03-24T04:10:25.396Z,98498.04
2019-03-24T04:15:26.971Z,98501.74
2019-03-24T04:20:28.616Z,98506.61
2019-03-24T04:25:30.174Z,98506.61
2019-03-24T04:30:32.826Z,98509.90
2019-03-24T04:35:34.429Z,98520.34
2019-03-24T04:40:35.981Z,98508.72
2019-03-24T04:45:37.775Z,98506.94
2019-03-24T04:50:39.379Z,98511.44
2019-03-24T04:55:40.926Z,98510.57
2019-03-24T05:00:42.476Z,98517.98
2019-03-24T05:05:45.134Z,98525.38
2019-03-24T05:10:46.690Z,98536.93
2019-03-24T05:15:48.255Z,98529.47
2019-03-24T05:20:49.909Z,98538.37
2019-03-24T05:25:51.499Z,98540.65
2019-03-24T05:30:53.060Z,98547.93
2019-03-24T05:35:54.623Z,98548.59
2019-03-24T05:40:56.638Z,98550.84
2019-03-24T05:45:58.204Z,98547.56
2019-03-24T05:50:59.889Z,98541.70
2019-03-24T05:56:01.953Z,98541.15
2019-03-24T06:01:03.627Z,98539.63
2019-03-24T06:06:05.643Z,98545.76
2019-03-24T06:11:07.203Z,98546.98
2019-03-24T06:16:08.792Z,98546.42
2019-03-24T06:21:10.570Z,98553.61
2019-03-24T06:26:12.340Z,98548.30
2019-03-24T06:31:14.067Z,98555.03
2019-03-24T06:36:16.031Z,98559.47
2019-03-24T06:41:17.789Z,98545.17
2019-03-24T06:46:19.512Z,98541.94
2019-03-24T06:51:21.200Z,98544.97
2019-03-24T06:56:22.908Z,98531.53
2019-03-24T07:01:24.560Z,98539.38
2019-03-24T07:06:26.125Z,98528.96
2019-03-24T07:11:27.676Z,98533.67
2019-03-24T07:16:29.242Z,98523.22
2019-03-24T07:21:30.939Z,98527.91
2019-03-24T07:26:32.503Z,98525.05
2019-03-24T07:31:34.192Z,98525.03
2019-03-24T07:36:35.749Z,98521.39
2019-03-24T07:41:37.312Z,98520.67
2019-03-24T07:46:38.875Z,98513.11
2019-03-24T07:51:40.497Z,98506.99
2019-03-24T07:56:43.164Z,98515.27
2019-03-24T08:01:44.990Z,98508.78
2019-03-24T08:06:46.537Z,98499.65
2019-03-24T08:11:48.097Z,98507.80
2019-03-24T08:16:50.755Z,98503.42
2019-03-24T08:21:52.430Z,98505.29
2019-03-24T08:26:53.991Z,98495.28
2019-03-24T08:31:55.580Z,98498.60
2019-03-24T08:36:57.217Z,98492.06
2019-03-24T08:41:59.292Z,98485.56
2019-03-24T08:47:00.896Z,98476.67
2019-03-24T08:52:03.522Z,98475.06
2019-03-24T08:57:05.191Z,98474.44
2019-03-24T09:02:06.961Z,98467.92
2019-03-24T09:07:08.518Z,98460.59
2019-03-24T09:12:10.128Z,98451.89
2019-03-24T09:17:11.696Z,98447.44
2019-03-24T09:22:13.329Z,98446.94
2019-03-24T09:27:14.957Z,98452.75
2019-03-24T09:32:16.520Z,98447.57
2019-03-24T09:37:18.080Z,98443.77
2019-03-24T09:42:19.768Z,98443.30
2019-03-24T09:47:21.332Z,98434.68
2019-03-24T09:52:23.189Z,98430.58
2019-03-24T09:57:24.809Z,98430.69
2019-03-24T10:02:26.413Z,98413.41
2019-03-24T10:07:28.092Z,98411.97
2019-03-24T10:12:29.695Z,98403.39
2019-03-24T10:17:31.274Z,98402.16
2019-03-24T10:22:32.927Z,98392.41
2019-03-24T10:27:34.574Z,98392.06
2019-03-24T10:32:36.473Z,98382.77
2019-03-24T10:37:38.036Z,98378.39
2019-03-24T10:42:39.806Z,98382.65
2019-03-24T10:47:41.571Z,98384.91
2019-03-24T10:52:43.279Z,98375.88
2019-03-24T10:57:45.904Z,98381.08
2019-03-24T11:02:47.493Z,98372.64
2019-03-24T11:07:49.376Z,98365.05
2019-03-24T11:12:50.928Z,98363.59
2019-03-24T11:17:52.584Z,98350.81
2019-03-24T11:22:54.529Z,98337.31
2019-03-24T11:27:56.120Z,98324.39
2019-03-24T11:32:57.732Z,98312.66
2019-03-24T11:37:59.296Z,98303.95
2019-03-24T11:43:00.865Z,98300.91
2019-03-24T11:48:02.681Z,98289.86
2019-03-24T11:53:04.650Z,98281.40
2019-03-24T11:58:06.455Z,98263.08
2019-03-24T12:03:08.315Z,98256.59
2019-03-24T12:08:09.982Z,98255.09
2019-03-24T12:13:11.552Z,98247.07
2019-03-24T12:18:13.127Z,98238.73
2019-03-24T12:23:15.896Z,98234.17
2019-03-24T12:28:17.457Z,98228.17
2019-03-24T12:33:19.060Z,98215.12
2019-03-24T12:38:20.634Z,98205.60
2019-03-24T12:43:22.213Z,98191.40
2019-03-24T12:48:23.804Z,98186.67
2019-03-24T12:53:25.451Z,98163.41
2019-03-24T12:58:27.215Z,98147.41
2019-03-24T13:03:29.309Z,98147.55
2019-03-24T13:08:30.882Z,98140.56
2019-03-24T13:13:32.499Z,98134.65
2019-03-24T13:18:34.134Z,98138.79
2019-03-24T13:23:35.771Z,98120.72
2019-03-24T13:28:37.489Z,98107.99
2019-03-24T13:33:39.038Z,98102.33
2019-03-24T13:38:40.601Z,98097.14
2019-03-24T13:43:42.160Z,98086.72
2019-03-24T13:48:43.768Z,98084.85
2019-03-24T13:53:45.456Z,98071.48
2019-03-24T13:58:47.035Z,98061.33
2019-03-24T14:03:49.774Z,98058.58
2019-03-24T14:08:51.743Z,98042.48
2019-03-24T14:13:53.434Z,98039.82
2019-03-24T14:18:55.004Z,98031.14
2019-03-24T14:23:56.668Z,98026.34
2019-03-24T14:29:00.689Z,98019.52
2019-03-24T14:34:02.908Z,98014.69
2019-03-24T14:39:05.469Z,98000.38
2019-03-24T14:44:07.328Z,98001.92
2019-03-24T14:49:08.889Z,97993.39
2019-03-24T14:54:11.048Z,97982.16
2019-03-24T14:59:12.661Z,97978.27
2019-03-24T15:04:14.232Z,97967.40
2019-03-24T15:09:15.806Z,97959.55
2019-03-24T15:14:17.380Z,97950.48
2019-03-24T15:19:18.989Z,97959.53
2019-03-24T15:24:20.639Z,97958.15
2019-03-24T15:29:22.213Z,97945.98
2019-03-24T15:34:23.870Z,97948.48
2019-03-24T15:39:27.133Z,97942.67
2019-03-24T15:44:30.783Z,97943.19
2019-03-24T15:49:32.660Z,97936.73
2019-03-24T15:54:35.557Z,97932.06
2019-03-24T15:59:37.610Z,97930.91
2019-03-24T16:04:41.998Z,97923.77
2019-03-24T16:09:46.360Z,97919.91
2019-03-24T16:14:48.182Z,97910.88
2019-03-24T16:19:50.883Z,97915.75
2019-03-24T16:24:54.571Z,97909.75
2019-03-24T16:29:57.842Z,97909.16
2019-03-24T16:35:00.692Z,97896.45
2019-03-24T16:40:05.389Z,97890.22
2019-03-24T16:45:07.492Z,97892.41
2019-03-24T16:50:09.616Z,97880.13
2019-03-24T16:55:14.219Z,97878.11
2019-03-24T17:00:18.633Z,97887.91
2019-03-24T17:05:20.301Z,97876.92
2019-03-24T17:10:23.130Z,97869.19
2019-03-24T17:15:26.697Z,97864.38
2019-03-24T17:20:28.676Z,97855.70
2019-03-24T17:25:34.005Z,97856.70
2019-03-24T17:30:35.583Z,97854.78
2019-03-24T17:35:37.434Z,97846.13
2019-03-24T17:40:41.037Z,97845.39
2019-03-24T17:45:44.011Z,97836.86
2019-03-24T17:50:47.080Z,97846.16
2019-03-24T17:55:49.098Z,97837.98
2019-03-24T18:00:55.679Z,97826.67
2019-03-24T18:05:59.554Z,97826.06
2019-03-24T18:11:00.941Z,97823.55
2019-03-24T18:16:02.959Z,97822.38
2019-03-24T18:21:04.817Z,97817.80
2019-03-24T18:26:10.262Z,97829.24
2019-03-24T18:31:13.717Z,97833.75
2019-03-24T18:36:16.412Z,97843.76
2019-03-24T18:41:19.345Z,97838.34
2019-03-24T18:46:24.494Z,97837.50
2019-03-24T18:51:26.067Z,97836.94
2019-03-24T18:56:28.175Z,97832.84
2019-03-24T19:01:32.904Z,97832.37
2019-03-24T19:06:34.537Z,97819.94
2019-03-24T19:11:37.860Z,97818.03
2019-03-24T19:16:40.778Z,97818.50
2019-03-24T19:21:45.227Z,97806.33
2019-03-24T19:26:48.974Z,97797.67
2019-03-24T19:31:50.536Z,97797.07
2019-03-24T19:36:54.440Z,97791.16
2019-03-24T19:41:56.046Z,97787.67
2019-03-24T19:46:59.149Z,97785.75
2019-03-24T19:52:02.021Z,97784.07
2019-03-24T19:57:04.939Z,97777.95
2019-03-24T20:02:09.605Z,97773.50
2019-03-24T20:07:11.374Z,97766.39
2019-03-24T20:12:15.989Z,97766.91
2019-03-24T20:17:18.813Z,97760.63
2019-03-24T20:22:20.372Z,97758.09
2019-03-24T20:27:22.363Z,97752.31
2019-03-24T20:32:26.150Z,97753.52
2019-03-24T20:37:28.796Z,97745.13
2019-03-24T20:42:32.425Z,97737.28
2019-03-24T20:47:34.561Z,97729.72
2019-03-24T20:52:36.494Z,97724.55
2019-03-24T20:57:41.309Z,97721.53
2019-03-24T21:02:43.702Z,97712.60
2019-03-24T21:07:47.524Z,97700.69
2019-03-24T21:13:28.630Z,97701.65
2019-03-24T21:18:30.400Z,97692.02
2019-03-24T21:23:31.954Z,97689.63
2019-03-24T21:28:33.673Z,97684.44
2019-03-24T21:33:35.233Z,97685.41
2019-03-24T21:38:36.827Z,97687.45
2019-03-24T21:43:38.420Z,97687.34
2019-03-24T21:48:40.004Z,97692.52
2019-03-24T21:53:41.581Z,97692.27
2019-03-24T21:58:43.141Z,97693.13
2019-03-24T22:03:44.748Z,97688.42
2019-03-24T22:08:46.300Z,97696.72
2019-03-24T22:13:48.283Z,97692.59
2019-03-24T22:18:49.953Z,97677.44
2019-03-24T22:23:53.423Z,97679.50
2019-03-24T22:28:55.637Z,97682.02
2019-03-24T22:33:57.235Z,97674.32
2019-03-24T22:38:58.796Z,97665.05
2019-03-24T22:44:00.352Z,97641.48
2019-03-24T22:49:02.344Z,97637.97
2019-03-24T22:54:03.963Z,97634.75
2019-03-24T22:59:05.543Z,97633.54
2019-03-24T23:04:07.207Z,97627.99
2019-03-24T23:09:09.559Z,97620.06
2019-03-24T23:14:11.120Z,97626.80
2019-03-24T23:19:12.675Z,97625.01
2019-03-24T23:24:15.629Z,97620.18
2019-03-24T23:29:17.900Z,97617.54
2019-03-24T23:34:19.455Z,97603.33
2019-03-24T23:39:21.023Z,97605.86
2019-03-24T23:44:22.788Z,97605.86
2019-03-24T23:49:24.484Z,97597.09
2019-03-24T23:54:27.338Z,97577.13
2019-03-24T23:59:29.440Z,97570.27
